SESEB ESMQ-ESMQ

Flight info

Callsign SESEB
Flight time 0h 53m
Altitude 2000
Route
Aircraft TBM9

Departure

Time 2026-05-06 17:59
Airport Kalmar Airport (ESMQ)

Arrival

Time 2026-05-06 18:53
Airport Kalmar Airport (ESMQ)
Time Latitude Longitude Altitude Speed Heading
2026-05-06 17:49 56.67869 16.28483 18 ft 0 kts 225°
2026-05-06 17:50 56.67869 16.28481 18 ft 3 kts 235°
2026-05-06 17:50 56.67913 16.28442 18 ft 11 kts 289°
2026-05-06 17:50 56.67961 16.28311 17 ft 14 kts 307°
2026-05-06 17:51 56.68051 16.28204 17 ft 18 kts 357°
2026-05-06 17:51 56.68181 16.28207 17 ft 19 kts
2026-05-06 17:51 56.68323 16.28216 18 ft 22 kts
2026-05-06 17:51 56.68484 16.28224 19 ft 23 kts
2026-05-06 17:52 56.68648 16.28237 21 ft 24 kts
2026-05-06 17:52 56.68813 16.28140 21 ft 26 kts 339°
2026-05-06 17:52 56.68986 16.28018 21 ft 27 kts 339°
2026-05-06 17:52 56.69160 16.27858 21 ft 28 kts 333°
2026-05-06 17:53 56.69315 16.27710 22 ft 28 kts 332°
2026-05-06 17:53 56.69500 16.27537 22 ft 35 kts 333°
2026-05-06 17:53 56.69581 16.27458 23 ft 7 kts 336°
2026-05-06 17:53 56.69633 16.27430 22 ft 9 kts
2026-05-06 17:54 56.69664 16.27445 22 ft 0 kts 33°
2026-05-06 17:54 56.69666 16.27447 22 ft 0 kts 34°
2026-05-06 17:55 56.69670 16.27453 22 ft 2 kts 32°
2026-05-06 17:55 56.69672 16.27456 22 ft 0 kts 36°
2026-05-06 17:56 56.69684 16.27475 24 ft 0 kts 51°
2026-05-06 17:58 56.69694 16.27496 46 ft 16 kts 52°
2026-05-06 17:58 56.69639 16.27713 25 ft 0 kts 153°
2026-05-06 17:59 56.69502 16.27849 24 ft 61 kts 154°
2026-05-06 17:59 56.68958 16.28388 264 ft 102 kts 143°
2026-05-06 17:59 56.68391 16.29134 921 ft 110 kts 123°
2026-05-06 17:59 56.68390 16.30593 1196 ft 132 kts 57°
2026-05-06 18:00 56.69204 16.31554 1398 ft 150 kts 28°
2026-05-06 18:00 56.69691 16.33107 1383 ft 161 kts 102°
2026-05-06 18:00 56.69069 16.34667 1862 ft 133 kts 130°
2026-05-06 18:00 56.68443 16.35775 2808 ft 123 kts 131°
2026-05-06 18:01 56.67784 16.37039 3045 ft 143 kts 121°
2026-05-06 18:01 56.67639 16.38652 2950 ft 130 kts 76°
2026-05-06 18:01 56.67870 16.40230 2880 ft 129 kts 76°
2026-05-06 18:01 56.68049 16.41841 2852 ft 131 kts 79°
2026-05-06 18:02 56.68222 16.43500 2899 ft 137 kts 78°
2026-05-06 18:02 56.68404 16.45233 2890 ft 142 kts 80°
2026-05-06 18:02 56.68589 16.47113 3010 ft 162 kts 80°
2026-05-06 18:02 56.68675 16.49212 3103 ft 160 kts 88°
2026-05-06 18:03 56.68631 16.51123 2964 ft 147 kts 95°
2026-05-06 18:03 56.68546 16.52912 2783 ft 140 kts 86°
2026-05-06 18:03 56.68602 16.54755 2159 ft 151 kts 86°
2026-05-06 18:03 56.68707 16.56637 1685 ft 149 kts 84°
2026-05-06 18:04 56.68797 16.58476 1363 ft 141 kts 85°
2026-05-06 18:04 56.69322 16.59606 1290 ft 125 kts
2026-05-06 18:04 56.69874 16.58553 1230 ft 127 kts 274°
2026-05-06 18:04 56.69343 16.57595 1034 ft 113 kts 187°
2026-05-06 18:05 56.68626 16.57206 865 ft 106 kts 195°
2026-05-06 18:05 56.67961 16.56981 747 ft 93 kts 184°
2026-05-06 18:05 56.67413 16.56316 870 ft 97 kts 225°
2026-05-06 18:05 56.66810 16.55860 905 ft 106 kts 178°
2026-05-06 18:06 56.66127 16.55558 909 ft 94 kts 185°
2026-05-06 18:06 56.65491 16.55659 747 ft 103 kts 163°
2026-05-06 18:06 56.64780 16.56112 737 ft 110 kts 153°
2026-05-06 18:06 56.64081 16.56656 592 ft 106 kts 153°
2026-05-06 18:07 56.63387 16.57131 539 ft 106 kts 156°
2026-05-06 18:07 56.62699 16.57549 516 ft 105 kts 153°
2026-05-06 18:07 56.61996 16.58099 530 ft 115 kts 149°
2026-05-06 18:07 56.61210 16.58116 536 ft 131 kts 216°
2026-05-06 18:08 56.60914 16.56581 477 ft 134 kts 282°
2026-05-06 18:08 56.61430 16.55436 429 ft 112 kts 329°
2026-05-06 18:08 56.62095 16.54578 416 ft 117 kts 329°
2026-05-06 18:08 56.61911 16.53588 560 ft 124 kts 194°
2026-05-06 18:09 56.61407 16.53537 644 ft 111 kts 169°
2026-05-06 18:09 56.61365 16.53545 647 ft 111 kts 169°
2026-05-06 18:10 56.60668 16.53744 875 ft 91 kts 141°
2026-05-06 18:10 56.60650 16.54635 962 ft 87 kts 24°
2026-05-06 18:10 56.61222 16.54085 913 ft 110 kts 317°
2026-05-06 18:10 56.61811 16.52808 482 ft 131 kts 316°
2026-05-06 18:11 56.62351 16.51702 755 ft 106 kts 317°
2026-05-06 18:11 56.62834 16.50809 936 ft 97 kts 322°
2026-05-06 18:11 56.63354 16.49925 1006 ft 91 kts 333°
2026-05-06 18:11 56.63883 16.49473 1104 ft 81 kts 344°
2026-05-06 18:12 56.64415 16.49032 1122 ft 85 kts 341°
2026-05-06 18:12 56.64938 16.48458 982 ft 93 kts 338°
2026-05-06 18:12 56.65568 16.47992 684 ft 110 kts 344°
2026-05-06 18:12 56.66365 16.47211 323 ft 140 kts 320°
2026-05-06 18:13 56.66600 16.45575 227 ft 125 kts 279°
2026-05-06 18:13 56.66759 16.44147 171 ft 104 kts 288°
2026-05-06 18:13 56.67059 16.43027 26 ft 93 kts 330°
2026-05-06 18:13 56.67359 16.42129 43 ft 100 kts 278°
2026-05-06 18:14 56.67521 16.40773 171 ft 112 kts 296°
2026-05-06 18:14 56.67827 16.39427 101 ft 118 kts 302°
2026-05-06 18:14 56.68417 16.38478 85 ft 117 kts 300°
2026-05-06 18:14 56.68018 16.37479 239 ft 129 kts 147°
2026-05-06 18:15 56.67890 16.39234 125 ft 172 kts 97°
2026-05-06 18:15 56.67529 16.41426 169 ft 185 kts 102°
2026-05-06 18:15 56.67178 16.43705 253 ft 187 kts 107°
2026-05-06 18:15 56.66746 16.45918 439 ft 184 kts 109°
2026-05-06 18:16 56.66618 16.48116 635 ft 162 kts 87°
2026-05-06 18:16 56.66639 16.49916 712 ft 118 kts 88°
2026-05-06 18:16 56.66737 16.51141 705 ft 91 kts 43°
2026-05-06 18:16 56.67210 16.50821 591 ft 104 kts 277°
2026-05-06 18:17 56.66903 16.49533 356 ft 115 kts 225°
2026-05-06 18:17 56.66251 16.49710 188 ft 103 kts 114°
2026-05-06 18:17 56.66399 16.50801 152 ft 96 kts 51°
2026-05-06 18:17 56.66872 16.51331 593 ft 87 kts 28°
2026-05-06 18:18 56.67298 16.52087 282 ft 93 kts 75°
2026-05-06 18:18 56.67484 16.53188 252 ft 108 kts 31°
2026-05-06 18:18 56.68274 16.53060 250 ft 124 kts 344°
2026-05-06 18:18 56.68979 16.52392 442 ft 112 kts 308°
2026-05-06 18:19 56.69194 16.50696 370 ft 164 kts 284°
2026-05-06 18:19 56.69697 16.48652 625 ft 189 kts 300°
2026-05-06 18:19 56.70583 16.47141 979 ft 159 kts
2026-05-06 18:19 56.71373 16.47854 1133 ft 110 kts 46°
2026-05-06 18:20 56.71829 16.48788 992 ft 95 kts 53°
2026-05-06 18:20 56.72328 16.49596 722 ft 97 kts 41°
2026-05-06 18:20 56.72934 16.50242 618 ft 106 kts 31°
2026-05-06 18:20 56.73600 16.50892 543 ft 106 kts 32°
2026-05-06 18:21 56.74251 16.51491 425 ft 108 kts 24°
2026-05-06 18:21 56.74970 16.52015 308 ft 108 kts 30°
2026-05-06 18:21 56.75646 16.52632 190 ft 108 kts 24°
2026-05-06 18:21 56.76307 16.53206 139 ft 114 kts 29°
2026-05-06 18:22 56.77054 16.53858 544 ft 106 kts 26°
2026-05-06 18:22 56.77768 16.54413 428 ft 125 kts 30°
2026-05-06 18:22 56.78496 16.55121 286 ft 113 kts 31°
2026-05-06 18:22 56.79142 16.55777 275 ft 103 kts 32°
2026-05-06 18:23 56.79740 16.56457 296 ft 103 kts 35°
2026-05-06 18:23 56.80397 16.57064 318 ft 115 kts 28°
2026-05-06 18:23 56.81183 16.57763 320 ft 133 kts 30°
2026-05-06 18:23 56.81892 16.58777 367 ft 120 kts 56°
2026-05-06 18:24 56.82257 16.59937 339 ft 93 kts 79°
2026-05-06 18:24 56.82606 16.60934 284 ft 115 kts 39°
2026-05-06 18:24 56.83332 16.61827 339 ft 125 kts 51°
2026-05-06 18:24 56.83878 16.63000 337 ft 121 kts 47°
2026-05-06 18:25 56.84474 16.63990 297 ft 112 kts 38°
2026-05-06 18:25 56.85063 16.64754 274 ft 94 kts 34°
2026-05-06 18:25 56.85663 16.65067 222 ft 90 kts 13°
2026-05-06 18:25 56.86140 16.65433 125 ft 56 kts 32°
2026-05-06 18:26 56.86425 16.65718 123 ft 69 kts 25°
2026-05-06 18:26 56.86981 16.66268 432 ft 101 kts 22°
2026-05-06 18:26 56.87701 16.65725 671 ft 132 kts 297°
2026-05-06 18:26 56.87771 16.64272 790 ft 138 kts 205°
2026-05-06 18:27 56.87888 16.63211 793 ft 165 kts 33°
2026-05-06 18:27 56.88124 16.65283 1177 ft 185 kts 91°
2026-05-06 18:27 56.88377 16.67669 962 ft 190 kts 56°
2026-05-06 18:27 56.89070 16.69437 1180 ft 157 kts 44°
2026-05-06 18:28 56.89295 16.71318 1000 ft 146 kts 58°
2026-05-06 18:28 56.90176 16.71970 988 ft 134 kts 15°
2026-05-06 18:28 56.91037 16.72356 983 ft 124 kts 17°
2026-05-06 18:28 56.91883 16.72589 923 ft 123 kts
2026-05-06 18:29 56.92725 16.72708 874 ft 120 kts 14°
2026-05-06 18:29 56.93492 16.73146 863 ft 115 kts 26°
2026-05-06 18:29 56.94184 16.73734 867 ft 107 kts 28°
2026-05-06 18:29 56.94859 16.74389 826 ft 111 kts 32°
2026-05-06 18:30 56.95534 16.75083 822 ft 110 kts 36°
2026-05-06 18:30 56.96210 16.75730 770 ft 115 kts 26°
2026-05-06 18:30 56.96980 16.76274 489 ft 118 kts 21°
2026-05-06 18:30 56.97701 16.76744 380 ft 101 kts 23°
2026-05-06 18:31 56.98325 16.77190 229 ft 89 kts 27°
2026-05-06 18:31 56.98818 16.77720 126 ft 79 kts 34°
2026-05-06 18:31 56.99351 16.78279 212 ft 98 kts 22°
2026-05-06 18:31 56.99823 16.79130 498 ft 90 kts 57°
2026-05-06 18:32 57.00204 16.79648 330 ft 125 kts 34°
2026-05-06 18:32 57.00900 16.80448 531 ft 120 kts 34°
2026-05-06 18:32 57.01642 16.81303 371 ft 125 kts 29°
2026-05-06 18:32 57.02423 16.81850 366 ft 121 kts 22°
2026-05-06 18:33 57.03076 16.82645 430 ft 107 kts 67°
2026-05-06 18:33 57.03334 16.83801 620 ft 95 kts 46°
2026-05-06 18:33 57.04009 16.84322 449 ft 114 kts 25°
2026-05-06 18:33 57.04711 16.84935 520 ft 108 kts 26°
2026-05-06 18:34 57.05407 16.85478 512 ft 111 kts 31°
2026-05-06 18:34 57.06012 16.86221 144 ft 98 kts
2026-05-06 18:34 57.06572 16.86137 40 ft 68 kts 350°
2026-05-06 18:34 57.06894 16.85754 209 ft 76 kts 253°
2026-05-06 18:35 57.06278 16.85068 323 ft 127 kts 202°
2026-05-06 18:35 57.05356 16.84354 536 ft 152 kts 200°
2026-05-06 18:35 57.04351 16.83645 643 ft 150 kts 199°
2026-05-06 18:35 57.03519 16.82978 733 ft 120 kts 202°
2026-05-06 18:36 57.02757 16.82230 500 ft 133 kts 209°
2026-05-06 18:36 57.02035 16.81407 681 ft 82 kts 211°
2026-05-06 18:36 57.01530 16.80806 522 ft 107 kts 212°
2026-05-06 18:36 57.00984 16.80082 714 ft 71 kts 220°
2026-05-06 18:37 57.00534 16.79373 489 ft 92 kts 216°
2026-05-06 18:37 56.99976 16.78662 318 ft 104 kts 213°
2026-05-06 18:37 56.99342 16.77900 274 ft 99 kts 214°
2026-05-06 18:37 56.98798 16.77148 214 ft 99 kts 211°
2026-05-06 18:38 56.98234 16.76448 137 ft 100 kts 216°
2026-05-06 18:38 56.97692 16.75768 272 ft 90 kts 211°
2026-05-06 18:38 56.97452 16.75474 217 ft 90 kts 213°
2026-05-06 18:39 56.97248 16.75226 174 ft 97 kts 212°
2026-05-06 18:39 56.96638 16.74507 87 ft 121 kts 210°
2026-05-06 18:40 56.94506 16.72161 238 ft 216 kts 212°
2026-05-06 18:40 56.93149 16.70717 362 ft 235 kts 207°
2026-05-06 18:40 56.91632 16.69393 328 ft 248 kts 204°
2026-05-06 18:40 56.90092 16.68041 426 ft 235 kts 208°
2026-05-06 18:41 56.88814 16.67023 687 ft 144 kts 190°
2026-05-06 18:41 56.88000 16.66749 363 ft 114 kts 188°
2026-05-06 18:41 56.87216 16.66437 240 ft 119 kts 194°
2026-05-06 18:41 56.86486 16.65786 151 ft 109 kts 211°
2026-05-06 18:42 56.85894 16.65195 156 ft 98 kts 205°
2026-05-06 18:42 56.85274 16.64490 319 ft 111 kts 233°
2026-05-06 18:42 56.85081 16.63079 416 ft 123 kts 254°
2026-05-06 18:42 56.84612 16.61704 417 ft 134 kts 227°
2026-05-06 18:43 56.83823 16.60126 218 ft 196 kts 225°
2026-05-06 18:43 56.82755 16.58527 228 ft 180 kts 214°
2026-05-06 18:43 56.81690 16.57227 228 ft 195 kts 213°
2026-05-06 18:43 56.80626 16.56002 539 ft 163 kts 207°
2026-05-06 18:44 56.79668 16.55163 508 ft 147 kts 201°
2026-05-06 18:44 56.78740 16.54540 496 ft 136 kts 198°
2026-05-06 18:44 56.77870 16.54036 447 ft 132 kts 196°
2026-05-06 18:44 56.76986 16.53517 346 ft 134 kts 197°
2026-05-06 18:45 56.76090 16.53006 269 ft 134 kts 196°
2026-05-06 18:45 56.75206 16.52459 256 ft 135 kts 199°
2026-05-06 18:45 56.74338 16.51853 311 ft 131 kts 198°
2026-05-06 18:45 56.73483 16.51323 356 ft 128 kts 197°
2026-05-06 18:46 56.72627 16.50788 334 ft 131 kts 196°
2026-05-06 18:46 56.71757 16.50244 324 ft 135 kts 197°
2026-05-06 18:46 56.70875 16.49648 359 ft 135 kts 199°
2026-05-06 18:46 56.70031 16.48929 416 ft 134 kts 205°
2026-05-06 18:47 56.69190 16.48151 433 ft 135 kts 207°
2026-05-06 18:47 56.68338 16.47423 423 ft 133 kts 201°
2026-05-06 18:47 56.67520 16.46704 417 ft 134 kts 221°
2026-05-06 18:47 56.67215 16.45152 367 ft 136 kts 278°
2026-05-06 18:48 56.67534 16.43593 381 ft 129 kts 304°
2026-05-06 18:48 56.67929 16.42510 445 ft 136 kts 310°
2026-05-06 18:48 56.68586 16.40926 392 ft 169 kts 311°
2026-05-06 18:48 56.69321 16.39291 465 ft 163 kts 314°
2026-05-06 18:49 56.70068 16.37759 559 ft 162 kts 316°
2026-05-06 18:49 56.70853 16.36237 582 ft 166 kts 317°
2026-05-06 18:49 56.71660 16.34718 598 ft 168 kts 314°
2026-05-06 18:49 56.72423 16.33096 534 ft 169 kts 314°
2026-05-06 18:50 56.73187 16.31515 575 ft 166 kts 315°
2026-05-06 18:50 56.73918 16.29922 738 ft 159 kts 313°
2026-05-06 18:50 56.74399 16.28418 897 ft 125 kts 274°
2026-05-06 18:50 56.74147 16.26770 940 ft 148 kts 241°
2026-05-06 18:51 56.73385 16.25484 983 ft 156 kts 201°
2026-05-06 18:51 56.72288 16.25225 898 ft 160 kts 163°
2026-05-06 18:51 56.71444 16.25968 462 ft 124 kts 147°
2026-05-06 18:51 56.70708 16.26702 234 ft 118 kts 150°
2026-05-06 18:52 56.69990 16.27383 91 ft 114 kts 150°
2026-05-06 18:52 56.69368 16.27977 28 ft 84 kts 149°
2026-05-06 18:52 56.68942 16.28390 23 ft 60 kts 152°
2026-05-06 18:52 56.68575 16.28736 18 ft 54 kts 152°
2026-05-06 18:53 56.68267 16.29032 20 ft 49 kts 150°
2026-05-06 18:53 56.68020 16.29249 20 ft 21 kts 185°
2026-05-06 18:53 56.67933 16.29173 20 ft 11 kts 223°
2026-05-06 18:53 56.67868 16.29057 20 ft 15 kts 231°
2026-05-06 18:54 56.67863 16.28852 20 ft 18 kts 266°
2026-05-06 18:54 56.67883 16.28609 19 ft 22 kts 291°
2026-05-06 18:54 56.67867 16.28479 18 ft 0 kts 225°